createdAt,value
2023-07-02T00:00:09.401Z,713.00
2023-07-02T00:01:09.379Z,686.00
2023-07-02T00:02:09.513Z,694.00
2023-07-02T00:03:09.478Z,677.00
2023-07-02T00:04:09.585Z,692.00
2023-07-02T00:05:09.503Z,680.00
2023-07-02T00:06:09.512Z,665.00
2023-07-02T00:07:09.590Z,688.00
2023-07-02T00:08:09.695Z,702.00
2023-07-02T00:09:09.717Z,675.00
2023-07-02T00:10:09.748Z,679.00
2023-07-02T00:11:09.832Z,661.00
2023-07-02T00:12:09.835Z,675.00
2023-07-02T00:13:09.912Z,667.00
2023-07-02T00:14:09.951Z,693.00
2023-07-02T00:15:09.980Z,683.00
2023-07-02T00:16:10.078Z,663.00
2023-07-02T00:17:10.135Z,712.00
2023-07-02T00:18:10.220Z,683.00
2023-07-02T00:19:10.235Z,670.00
2023-07-02T00:20:10.331Z,697.00
2023-07-02T00:21:10.322Z,666.00
2023-07-02T00:22:10.594Z,668.00
2023-07-02T00:23:10.470Z,688.00
2023-07-02T00:24:10.567Z,660.00
2023-07-02T00:25:10.568Z,683.00
2023-07-02T00:26:12.482Z,682.00
2023-07-02T00:27:10.751Z,665.00
2023-07-02T00:28:11.313Z,679.00
2023-07-02T00:29:10.790Z,683.00
2023-07-02T00:30:10.872Z,700.00
2023-07-02T00:31:10.912Z,666.00
2023-07-02T00:32:10.952Z,678.00
2023-07-02T00:33:10.994Z,672.00
2023-07-02T00:34:11.061Z,698.00
2023-07-02T00:35:11.051Z,685.00
2023-07-02T00:36:11.143Z,691.00
2023-07-02T00:37:11.168Z,672.00
2023-07-02T00:38:11.160Z,671.00
2023-07-02T00:39:11.240Z,662.00
2023-07-02T00:40:11.251Z,676.00
2023-07-02T00:41:11.342Z,691.00
2023-07-02T00:42:11.387Z,698.00
2023-07-02T00:43:11.395Z,666.00
2023-07-02T00:44:11.402Z,681.00
2023-07-02T00:45:11.522Z,699.00
2023-07-02T00:46:11.551Z,674.00
2023-07-02T00:47:11.534Z,685.00
2023-07-02T00:48:11.809Z,700.00
2023-07-02T00:49:11.583Z,669.00
2023-07-02T00:50:11.609Z,667.00
2023-07-02T00:51:11.684Z,702.00
2023-07-02T00:52:11.738Z,666.00
2023-07-02T00:53:11.722Z,663.00
2023-07-02T00:54:11.778Z,656.00
2023-07-02T00:55:11.839Z,663.00
2023-07-02T00:56:11.875Z,669.00
2023-07-02T00:57:11.865Z,698.00
2023-07-02T00:58:11.948Z,674.00
2023-07-02T00:59:11.956Z,673.00
2023-07-02T01:00:12.322Z,671.00
2023-07-02T01:01:12.080Z,663.00
2023-07-02T01:02:12.258Z,689.00
2023-07-02T01:03:12.180Z,668.00
2023-07-02T01:04:12.173Z,658.00
2023-07-02T01:05:12.237Z,688.00
2023-07-02T01:06:12.132Z,692.00
2023-07-02T01:07:12.469Z,695.00
2023-07-02T01:08:12.194Z,688.00
2023-07-02T01:09:12.308Z,670.00
2023-07-02T01:10:12.278Z,657.00
2023-07-02T01:11:12.326Z,666.00
2023-07-02T01:12:12.353Z,689.00
2023-07-02T01:13:12.323Z,678.00
2023-07-02T01:14:12.378Z,672.00
2023-07-02T01:15:12.392Z,682.00
2023-07-02T01:16:12.534Z,678.00
2023-07-02T01:17:12.485Z,666.00
2023-07-02T01:18:12.550Z,692.00
2023-07-02T01:19:12.574Z,673.00
2023-07-02T01:20:12.663Z,671.00
2023-07-02T01:21:12.662Z,691.00
2023-07-02T01:22:12.657Z,669.00
2023-07-02T01:23:12.717Z,660.00
2023-07-02T01:24:12.702Z,684.00
2023-07-02T01:25:12.785Z,683.00
2023-07-02T01:26:12.814Z,670.00
2023-07-02T01:27:12.798Z,669.00
2023-07-02T01:28:12.849Z,690.00
2023-07-02T01:29:12.848Z,703.00
2023-07-02T01:30:12.947Z,692.00
2023-07-02T01:31:12.989Z,674.00
2023-07-02T01:32:12.966Z,699.00
2023-07-02T01:33:13.000Z,690.00
2023-07-02T01:34:13.089Z,678.00
2023-07-02T01:35:13.125Z,661.00
2023-07-02T01:36:13.132Z,664.00
2023-07-02T01:37:13.170Z,687.00
2023-07-02T01:38:13.189Z,678.00
2023-07-02T01:39:13.177Z,693.00
2023-07-02T01:40:13.235Z,673.00
2023-07-02T01:41:13.302Z,667.00
2023-07-02T01:42:13.349Z,676.00
2023-07-02T01:43:13.315Z,681.00
2023-07-02T01:44:13.366Z,665.00
2023-07-02T01:45:13.367Z,662.00
2023-07-02T01:46:13.405Z,663.00
2023-07-02T01:47:13.416Z,670.00
2023-07-02T01:48:13.455Z,685.00
2023-07-02T01:49:13.489Z,662.00
2023-07-02T01:50:13.470Z,679.00
2023-07-02T01:51:13.522Z,696.00
2023-07-02T01:52:13.555Z,654.00
2023-07-02T01:53:13.587Z,664.00
2023-07-02T01:54:13.620Z,658.00
2023-07-02T01:55:13.594Z,676.00
2023-07-02T01:56:13.636Z,663.00
2023-07-02T01:57:13.694Z,676.00
2023-07-02T01:58:13.723Z,678.00
2023-07-02T01:59:13.771Z,656.00
2023-07-02T02:00:13.766Z,689.00
2023-07-02T02:01:13.807Z,659.00
2023-07-02T02:02:13.920Z,678.00
2023-07-02T02:03:13.907Z,660.00
2023-07-02T02:04:13.970Z,675.00
2023-07-02T02:05:13.898Z,692.00
2023-07-02T02:06:13.955Z,664.00
2023-07-02T02:07:13.961Z,679.00
2023-07-02T02:08:14.035Z,663.00
2023-07-02T02:09:14.070Z,673.00
2023-07-02T02:10:14.089Z,675.00
2023-07-02T02:11:14.128Z,673.00
2023-07-02T02:12:14.129Z,674.00
2023-07-02T02:13:14.176Z,688.00
2023-07-02T02:14:14.456Z,674.00
2023-07-02T02:15:14.189Z,676.00
2023-07-02T02:16:14.230Z,662.00
2023-07-02T02:17:14.368Z,674.00
2023-07-02T02:18:14.318Z,665.00
2023-07-02T02:19:14.280Z,666.00
2023-07-02T02:20:14.331Z,665.00
2023-07-02T02:21:14.390Z,669.00
2023-07-02T02:22:14.408Z,662.00
2023-07-02T02:23:14.402Z,660.00
2023-07-02T02:24:14.391Z,658.00
2023-07-02T02:25:14.421Z,655.00
2023-07-02T02:26:14.398Z,661.00
2023-07-02T02:27:14.486Z,676.00
2023-07-02T02:28:14.437Z,654.00
2023-07-02T02:29:14.486Z,671.00
2023-07-02T02:30:14.488Z,654.00
2023-07-02T02:31:14.605Z,677.00
2023-07-02T02:32:14.544Z,654.00
2023-07-02T02:33:14.593Z,659.00
2023-07-02T02:34:14.662Z,682.00
2023-07-02T02:35:14.721Z,660.00
2023-07-02T02:36:14.722Z,671.00
2023-07-02T02:37:14.756Z,677.00
2023-07-02T02:38:14.799Z,654.00
2023-07-02T02:39:14.836Z,662.00
2023-07-02T02:40:14.835Z,658.00
2023-07-02T02:41:14.883Z,663.00
2023-07-02T02:42:14.916Z,653.00
2023-07-02T02:43:14.911Z,659.00
2023-07-02T02:44:15.017Z,673.00
2023-07-02T02:45:14.981Z,662.00
2023-07-02T02:46:14.992Z,685.00
2023-07-02T02:47:15.013Z,661.00
2023-07-02T02:48:14.998Z,666.00
2023-07-02T02:49:15.046Z,674.00
2023-07-02T02:50:15.071Z,665.00
2023-07-02T02:51:15.136Z,658.00
2023-07-02T02:52:15.152Z,666.00
2023-07-02T02:53:15.231Z,660.00
2023-07-02T02:54:15.203Z,664.00
2023-07-02T02:55:15.269Z,658.00
2023-07-02T02:56:15.245Z,665.00
2023-07-02T02:57:15.294Z,680.00
2023-07-02T02:58:15.344Z,667.00
2023-07-02T02:59:15.380Z,677.00
2023-07-02T03:00:15.389Z,661.00
2023-07-02T03:01:15.408Z,673.00
2023-07-02T03:02:15.404Z,668.00
2023-07-02T03:03:15.447Z,662.00
2023-07-02T03:04:15.444Z,661.00
2023-07-02T03:05:15.463Z,682.00
2023-07-02T03:06:15.452Z,674.00
2023-07-02T03:07:15.537Z,663.00
2023-07-02T03:08:15.533Z,669.00
2023-07-02T03:09:15.552Z,652.00
2023-07-02T03:10:15.555Z,660.00
2023-07-02T03:11:15.562Z,663.00
2023-07-02T03:12:15.608Z,661.00
2023-07-02T03:13:15.622Z,660.00
2023-07-02T03:14:15.617Z,671.00
2023-07-02T03:15:15.669Z,663.00
2023-07-02T03:16:15.711Z,671.00
2023-07-02T03:17:15.674Z,653.00
2023-07-02T03:18:15.646Z,660.00
2023-07-02T03:19:15.713Z,666.00
2023-07-02T03:20:15.646Z,654.00
2023-07-02T03:21:15.671Z,664.00
2023-07-02T03:22:15.696Z,674.00
2023-07-02T03:23:15.690Z,661.00
2023-07-02T03:24:15.741Z,663.00
2023-07-02T03:25:15.696Z,655.00
2023-07-02T03:26:15.789Z,673.00
2023-07-02T03:27:15.709Z,659.00
2023-07-02T03:28:15.767Z,665.00
2023-07-02T03:29:15.822Z,660.00
2023-07-02T03:30:15.840Z,665.00
2023-07-02T03:31:15.893Z,665.00
2023-07-02T03:32:15.834Z,664.00
2023-07-02T03:33:15.861Z,665.00
2023-07-02T03:34:15.859Z,652.00
2023-07-02T03:35:15.925Z,661.00
2023-07-02T03:36:15.972Z,665.00
2023-07-02T03:37:15.989Z,674.00
2023-07-02T03:38:16.015Z,666.00
2023-07-02T03:39:16.009Z,662.00
2023-07-02T03:40:16.004Z,652.00
2023-07-02T03:41:16.061Z,674.00
2023-07-02T03:42:16.073Z,655.00
2023-07-02T03:43:16.092Z,660.00
2023-07-02T03:44:16.094Z,666.00
2023-07-02T03:45:16.141Z,664.00
2023-07-02T03:46:16.249Z,661.00
2023-07-02T03:47:16.209Z,663.00
2023-07-02T03:48:16.242Z,662.00
2023-07-02T03:49:16.275Z,660.00
2023-07-02T03:50:16.254Z,664.00
2023-07-02T03:51:16.357Z,671.00
2023-07-02T03:52:16.350Z,659.00
2023-07-02T03:53:16.353Z,666.00
2023-07-02T03:54:16.403Z,658.00
2023-07-02T03:55:16.418Z,664.00
2023-07-02T03:56:16.494Z,664.00
2023-07-02T03:57:16.557Z,665.00
2023-07-02T03:58:16.541Z,663.00
2023-07-02T03:59:16.539Z,664.00
2023-07-02T04:00:16.563Z,666.00
2023-07-02T04:01:17.119Z,665.00
2023-07-02T04:02:16.686Z,671.00
2023-07-02T04:03:16.711Z,660.00
2023-07-02T04:04:16.640Z,662.00
2023-07-02T04:05:16.601Z,666.00
2023-07-02T04:06:16.666Z,662.00
2023-07-02T04:07:16.936Z,662.00
2023-07-02T04:08:16.686Z,661.00
2023-07-02T04:09:16.680Z,666.00
2023-07-02T04:10:16.751Z,675.00
2023-07-02T04:11:16.732Z,661.00
2023-07-02T04:12:16.740Z,654.00
2023-07-02T04:13:16.743Z,659.00
2023-07-02T04:14:16.818Z,661.00
2023-07-02T04:15:16.829Z,667.00
2023-07-02T04:16:16.953Z,645.00
2023-07-02T04:17:16.873Z,664.00
2023-07-02T04:18:16.861Z,656.00
2023-07-02T04:19:16.849Z,658.00
2023-07-02T04:20:16.866Z,656.00
2023-07-02T04:21:17.269Z,660.00
2023-07-02T04:22:16.954Z,648.00
2023-07-02T04:23:16.935Z,662.00
2023-07-02T04:24:16.981Z,658.00
2023-07-02T04:25:33.949Z,658.00
2023-07-02T04:26:48.510Z,659.00
2023-07-02T04:27:50.932Z,659.00
2023-07-02T04:28:17.975Z,660.00
2023-07-02T04:29:16.908Z,663.00
2023-07-02T04:30:16.910Z,665.00
2023-07-02T04:31:17.065Z,663.00
2023-07-02T04:32:16.965Z,663.00
2023-07-02T04:33:16.946Z,662.00
2023-07-02T04:34:16.878Z,658.00
2023-07-02T04:35:16.875Z,664.00
2023-07-02T04:36:16.886Z,665.00
2023-07-02T04:37:16.859Z,671.00
2023-07-02T04:38:16.859Z,654.00
2023-07-02T04:39:16.915Z,658.00
2023-07-02T04:40:16.877Z,661.00
2023-07-02T04:41:16.829Z,664.00
2023-07-02T04:42:16.830Z,651.00
2023-07-02T04:43:16.808Z,653.00
2023-07-02T04:44:16.823Z,658.00
2023-07-02T04:45:17.934Z,665.00
2023-07-02T04:46:16.821Z,660.00
2023-07-02T04:47:16.827Z,661.00
2023-07-02T04:48:16.776Z,661.00
2023-07-02T04:49:16.787Z,657.00
2023-07-02T04:50:16.790Z,672.00
2023-07-02T04:51:16.751Z,664.00
2023-07-02T04:52:16.802Z,664.00
2023-07-02T04:53:16.765Z,655.00
2023-07-02T04:54:16.779Z,657.00
2023-07-02T04:55:16.713Z,660.00
2023-07-02T04:56:16.740Z,659.00
2023-07-02T04:57:16.793Z,666.00
2023-07-02T04:58:16.813Z,667.00
2023-07-02T04:59:16.749Z,652.00
2023-07-02T05:00:16.710Z,652.00
2023-07-02T05:01:16.710Z,661.00
2023-07-02T05:02:16.721Z,655.00
2023-07-02T05:03:16.843Z,661.00
2023-07-02T05:04:16.742Z,659.00
2023-07-02T05:05:16.679Z,657.00
2023-07-02T05:06:16.650Z,663.00
2023-07-02T05:07:16.662Z,661.00
2023-07-02T05:08:16.678Z,661.00
2023-07-02T05:09:16.672Z,658.00
2023-07-02T05:10:16.629Z,654.00
2023-07-02T05:11:16.618Z,661.00
2023-07-02T05:12:16.652Z,649.00
2023-07-02T05:13:16.653Z,660.00
2023-07-02T05:14:16.610Z,659.00
2023-07-02T05:15:16.616Z,643.00
2023-07-02T05:16:16.640Z,651.00
2023-07-02T05:17:16.635Z,655.00
2023-07-02T05:18:16.650Z,648.00
2023-07-02T05:19:16.592Z,649.00
2023-07-02T05:20:16.571Z,644.00
2023-07-02T05:21:16.546Z,662.00
2023-07-02T05:22:18.200Z,657.00
2023-07-02T05:23:16.567Z,653.00
2023-07-02T05:24:16.567Z,652.00
2023-07-02T05:25:16.643Z,658.00
2023-07-02T05:26:16.557Z,666.00
2023-07-02T05:27:16.535Z,650.00
2023-07-02T05:28:16.549Z,663.00
2023-07-02T05:29:16.505Z,658.00
2023-07-02T05:30:16.512Z,659.00
2023-07-02T05:31:16.665Z,652.00
2023-07-02T05:32:16.572Z,664.00
2023-07-02T05:33:16.638Z,665.00
2023-07-02T05:34:16.470Z,653.00
2023-07-02T05:35:16.590Z,659.00
2023-07-02T05:36:16.499Z,650.00
2023-07-02T05:37:16.453Z,658.00
2023-07-02T05:38:16.454Z,641.00
2023-07-02T05:39:16.464Z,646.00
2023-07-02T05:40:17.898Z,646.00
2023-07-02T05:41:16.415Z,651.00
2023-07-02T05:42:16.417Z,642.00
2023-07-02T05:43:16.447Z,645.00
2023-07-02T05:44:16.457Z,660.00
2023-07-02T05:45:16.412Z,655.00
2023-07-02T05:46:16.641Z,655.00
2023-07-02T05:47:16.430Z,651.00
2023-07-02T05:48:16.359Z,649.00
2023-07-02T05:49:16.371Z,657.00
2023-07-02T05:50:16.412Z,654.00
2023-07-02T05:51:16.391Z,645.00
2023-07-02T05:52:16.361Z,654.00
2023-07-02T05:53:16.419Z,652.00
2023-07-02T05:54:16.405Z,652.00
2023-07-02T05:55:16.484Z,651.00
2023-07-02T05:56:16.310Z,649.00
2023-07-02T05:57:16.333Z,649.00
2023-07-02T05:58:16.353Z,655.00
2023-07-02T05:59:16.353Z,658.00
2023-07-02T06:00:16.334Z,646.00
2023-07-02T06:01:16.357Z,655.00
2023-07-02T06:02:16.353Z,648.00
2023-07-02T06:03:16.311Z,639.00
2023-07-02T06:04:16.331Z,652.00
2023-07-02T06:05:16.424Z,646.00
2023-07-02T06:06:16.332Z,645.00
2023-07-02T06:07:16.310Z,645.00
2023-07-02T06:08:16.268Z,650.00
2023-07-02T06:09:16.361Z,642.00
2023-07-02T06:10:16.288Z,650.00
2023-07-02T06:11:16.307Z,657.00
2023-07-02T06:12:16.224Z,659.00
2023-07-02T06:13:16.253Z,656.00
2023-07-02T06:14:16.251Z,643.00
2023-07-02T06:15:16.202Z,654.00
2023-07-02T06:16:16.294Z,655.00
2023-07-02T06:17:16.165Z,643.00
2023-07-02T06:18:16.427Z,655.00
2023-07-02T06:19:16.243Z,657.00
2023-07-02T06:20:16.184Z,641.00
2023-07-02T06:21:16.172Z,654.00
2023-07-02T06:22:16.216Z,652.00
2023-07-02T06:23:16.167Z,641.00
2023-07-02T06:24:16.177Z,651.00
2023-07-02T06:25:16.115Z,649.00
2023-07-02T06:26:16.179Z,652.00
2023-07-02T06:27:16.196Z,648.00
2023-07-02T06:28:16.137Z,645.00
2023-07-02T06:29:16.156Z,649.00
2023-07-02T06:30:16.151Z,641.00
2023-07-02T06:31:16.171Z,657.00
2023-07-02T06:32:16.194Z,645.00
2023-07-02T06:33:16.137Z,651.00
2023-07-02T06:34:16.155Z,647.00
2023-07-02T06:35:16.092Z,656.00
2023-07-02T06:36:18.301Z,642.00
2023-07-02T06:37:16.090Z,649.00
2023-07-02T06:38:16.137Z,660.00
2023-07-02T06:39:16.169Z,646.00
2023-07-02T06:40:16.174Z,653.00
2023-07-02T06:41:16.217Z,642.00
2023-07-02T06:42:16.231Z,649.00
2023-07-02T06:43:16.308Z,648.00
2023-07-02T06:44:16.312Z,645.00
2023-07-02T06:45:16.356Z,644.00
2023-07-02T06:46:16.372Z,648.00
2023-07-02T06:47:16.431Z,633.00
2023-07-02T06:48:16.477Z,644.00
2023-07-02T06:49:16.551Z,655.00
2023-07-02T06:50:16.550Z,636.00
2023-07-02T06:51:16.572Z,640.00
2023-07-02T06:52:16.666Z,639.00
2023-07-02T06:53:16.649Z,637.00
2023-07-02T06:54:16.697Z,636.00
2023-07-02T06:55:17.226Z,640.00
2023-07-02T06:56:16.900Z,645.00
2023-07-02T06:57:16.859Z,643.00
2023-07-02T06:58:16.925Z,644.00
2023-07-02T06:59:16.966Z,650.00
2023-07-02T07:00:17.044Z,638.00
2023-07-02T07:01:17.197Z,633.00
2023-07-02T07:02:17.120Z,641.00
2023-07-02T07:03:17.199Z,632.00
2023-07-02T07:04:17.386Z,646.00
2023-07-02T07:05:17.238Z,639.00
2023-07-02T07:06:17.325Z,652.00
2023-07-02T07:07:17.364Z,656.00
2023-07-02T07:08:17.448Z,637.00
2023-07-02T07:09:17.502Z,644.00
2023-07-02T07:10:17.552Z,652.00
2023-07-02T07:11:17.674Z,642.00
2023-07-02T07:12:17.664Z,649.00
2023-07-02T07:13:17.737Z,646.00
2023-07-02T07:14:17.832Z,646.00
2023-07-02T07:15:17.855Z,649.00
2023-07-02T07:16:17.895Z,634.00
2023-07-02T07:17:17.993Z,637.00
2023-07-02T07:18:18.133Z,633.00
2023-07-02T07:19:18.068Z,643.00
2023-07-02T07:20:18.103Z,634.00
2023-07-02T07:21:18.239Z,646.00
2023-07-02T07:22:18.329Z,640.00
2023-07-02T07:23:18.298Z,633.00
2023-07-02T07:24:18.532Z,643.00
2023-07-02T07:25:19.243Z,641.00
2023-07-02T07:26:18.477Z,634.00
2023-07-02T07:27:18.599Z,629.00
2023-07-02T07:28:18.638Z,651.00
2023-07-02T07:29:18.675Z,644.00
2023-07-02T07:30:18.769Z,632.00
2023-07-02T07:31:18.824Z,628.00
2023-07-02T07:32:18.895Z,637.00
2023-07-02T07:33:18.926Z,641.00
2023-07-02T07:34:18.984Z,628.00
2023-07-02T07:35:19.144Z,631.00
2023-07-02T07:36:19.166Z,638.00
2023-07-02T07:37:19.136Z,639.00
2023-07-02T07:38:19.207Z,634.00
2023-07-02T07:39:19.247Z,638.00
2023-07-02T07:40:19.346Z,635.00
2023-07-02T07:41:19.399Z,635.00
2023-07-02T07:42:19.463Z,650.00
2023-07-02T07:43:19.560Z,634.00
2023-07-02T07:44:19.580Z,641.00
2023-07-02T07:45:19.687Z,643.00
2023-07-02T07:46:20.098Z,638.00
2023-07-02T07:47:19.777Z,630.00
2023-07-02T07:48:19.794Z,627.00
2023-07-02T07:49:19.904Z,637.00
2023-07-02T07:50:19.932Z,644.00
2023-07-02T07:51:19.981Z,643.00
2023-07-02T07:52:20.035Z,635.00
2023-07-02T07:53:20.130Z,640.00
2023-07-02T07:54:20.163Z,639.00
2023-07-02T07:55:20.265Z,640.00
2023-07-02T07:56:20.309Z,625.00
2023-07-02T07:57:20.371Z,630.00
2023-07-02T07:58:20.450Z,633.00
2023-07-02T07:59:20.481Z,639.00
2023-07-02T08:00:20.490Z,625.00
2023-07-02T08:01:20.724Z,617.00
2023-07-02T08:02:20.694Z,628.00
2023-07-02T08:03:20.728Z,620.00
2023-07-02T08:04:20.911Z,614.00
2023-07-02T08:05:20.808Z,609.00
2023-07-02T08:06:20.859Z,598.00
2023-07-02T08:07:20.976Z,595.00
2023-07-02T08:08:20.952Z,603.00
2023-07-02T08:09:21.038Z,593.00
2023-07-02T08:10:21.091Z,597.00
2023-07-02T08:11:21.218Z,609.00
2023-07-02T08:12:21.207Z,601.00
2023-07-02T08:13:21.320Z,592.00
2023-07-02T08:14:21.325Z,597.00
2023-07-02T08:15:21.377Z,595.00
2023-07-02T08:16:21.535Z,588.00
2023-07-02T08:17:21.497Z,591.00
2023-07-02T08:18:21.545Z,587.00
2023-07-02T08:19:21.582Z,607.00
2023-07-02T08:20:21.710Z,593.00
2023-07-02T08:21:21.687Z,605.00
2023-07-02T08:22:21.762Z,593.00
2023-07-02T08:23:21.769Z,590.00
2023-07-02T08:24:21.852Z,584.00
2023-07-02T08:25:21.886Z,598.00
2023-07-02T08:26:21.940Z,584.00
2023-07-02T08:27:22.002Z,583.00
2023-07-02T08:28:22.044Z,579.00
2023-07-02T08:29:22.056Z,576.00
2023-07-02T08:30:22.205Z,584.00
2023-07-02T08:31:22.220Z,583.00
2023-07-02T08:32:22.265Z,588.00
2023-07-02T08:33:22.294Z,584.00
2023-07-02T08:34:22.291Z,591.00
2023-07-02T08:35:22.407Z,572.00
2023-07-02T08:36:22.477Z,591.00
2023-07-02T08:37:22.543Z,588.00
2023-07-02T08:38:22.560Z,585.00
2023-07-02T08:39:22.590Z,579.00
2023-07-02T08:40:22.600Z,565.00
2023-07-02T08:41:22.655Z,584.00
2023-07-02T08:42:22.718Z,575.00
2023-07-02T08:43:22.764Z,569.00
2023-07-02T08:44:22.843Z,571.00
2023-07-02T08:45:22.840Z,572.00
2023-07-02T08:46:22.977Z,586.00
2023-07-02T08:47:22.998Z,570.00
2023-07-02T08:48:22.965Z,562.00
2023-07-02T08:49:23.083Z,568.00
2023-07-02T08:50:23.149Z,571.00
2023-07-02T08:51:23.128Z,566.00
2023-07-02T08:52:23.200Z,566.00
2023-07-02T08:53:23.241Z,571.00
2023-07-02T08:54:23.249Z,568.00
2023-07-02T08:55:23.327Z,569.00
2023-07-02T08:56:23.377Z,576.00
2023-07-02T08:57:23.438Z,568.00
2023-07-02T08:58:23.464Z,577.00
2023-07-02T08:59:23.533Z,562.00
2023-07-02T09:00:23.571Z,568.00
2023-07-02T09:01:23.643Z,566.00
2023-07-02T09:02:23.679Z,563.00
2023-07-02T09:03:23.801Z,564.00
2023-07-02T09:04:23.777Z,566.00
2023-07-02T09:05:23.730Z,575.00
2023-07-02T09:06:23.805Z,567.00
2023-07-02T09:07:23.852Z,572.00
2023-07-02T09:08:23.943Z,564.00
2023-07-02T09:09:23.946Z,566.00
2023-07-02T09:10:23.997Z,559.00
2023-07-02T09:11:24.059Z,566.00
2023-07-02T09:12:24.098Z,559.00
2023-07-02T09:13:24.100Z,558.00
2023-07-02T09:14:24.201Z,568.00
2023-07-02T09:15:24.276Z,559.00
2023-07-02T09:16:26.114Z,556.00
2023-07-02T09:17:24.317Z,566.00
2023-07-02T09:18:24.249Z,563.00
2023-07-02T09:19:24.243Z,562.00
2023-07-02T09:20:24.174Z,560.00
2023-07-02T09:21:24.218Z,554.00
2023-07-02T09:22:24.197Z,562.00
2023-07-02T09:23:24.238Z,555.00
2023-07-02T09:24:24.217Z,561.00
2023-07-02T09:25:24.204Z,556.00
2023-07-02T09:26:24.171Z,568.00
2023-07-02T09:27:24.160Z,560.00
2023-07-02T09:28:24.165Z,559.00
2023-07-02T09:29:24.174Z,567.00
2023-07-02T09:30:24.134Z,560.00
2023-07-02T09:31:24.164Z,564.00
2023-07-02T09:32:24.215Z,560.00
2023-07-02T09:33:24.253Z,555.00
2023-07-02T09:34:24.291Z,555.00
2023-07-02T09:35:24.116Z,558.00
2023-07-02T09:36:24.116Z,558.00
2023-07-02T09:37:24.089Z,554.00
2023-07-02T09:38:24.170Z,555.00
2023-07-02T09:39:24.101Z,553.00
2023-07-02T09:40:24.106Z,549.00
2023-07-02T09:41:24.115Z,551.00
2023-07-02T09:42:24.074Z,552.00
2023-07-02T09:43:24.077Z,544.00
2023-07-02T09:44:24.053Z,547.00
2023-07-02T09:45:24.515Z,544.00
2023-07-02T09:46:24.060Z,544.00
2023-07-02T09:47:24.078Z,543.00
2023-07-02T09:48:24.049Z,540.00
2023-07-02T09:49:23.994Z,539.00
2023-07-02T09:50:24.005Z,544.00
2023-07-02T09:51:24.058Z,540.00
2023-07-02T09:52:24.054Z,541.00
2023-07-02T09:53:24.156Z,542.00
2023-07-02T09:54:24.148Z,538.00
2023-07-02T09:55:24.141Z,539.00
2023-07-02T09:56:24.204Z,534.00
2023-07-02T09:57:24.237Z,532.00
2023-07-02T09:58:24.280Z,528.00
2023-07-02T09:59:24.286Z,528.00
2023-07-02T10:00:24.350Z,531.00
2023-07-02T10:01:24.352Z,538.00
2023-07-02T10:02:24.375Z,543.00
2023-07-02T10:03:24.459Z,543.00
2023-07-02T10:04:24.500Z,544.00
2023-07-02T10:05:24.553Z,544.00
2023-07-02T10:06:24.530Z,544.00
2023-07-02T10:07:24.682Z,546.00
2023-07-02T10:08:24.564Z,538.00
2023-07-02T10:09:24.573Z,534.00
2023-07-02T10:10:24.620Z,536.00
2023-07-02T10:11:24.674Z,534.00
2023-07-02T10:12:24.710Z,525.00
2023-07-02T10:13:24.703Z,529.00
2023-07-02T10:14:24.753Z,529.00
2023-07-02T10:15:24.757Z,532.00
2023-07-02T10:16:24.802Z,529.00
2023-07-02T10:17:24.950Z,529.00
2023-07-02T10:18:24.924Z,526.00
2023-07-02T10:19:25.021Z,530.00
2023-07-02T10:20:24.928Z,524.00
2023-07-02T10:21:24.974Z,521.00
2023-07-02T10:22:25.248Z,521.00
2023-07-02T10:23:25.070Z,521.00
2023-07-02T10:24:25.066Z,520.00
2023-07-02T10:25:25.119Z,521.00
2023-07-02T10:26:25.112Z,520.00
2023-07-02T10:27:25.140Z,523.00
2023-07-02T10:28:25.251Z,521.00
2023-07-02T10:29:25.238Z,525.00
2023-07-02T10:30:25.260Z,518.00
2023-07-02T10:31:25.299Z,517.00
2023-07-02T10:32:25.366Z,511.00
2023-07-02T10:33:25.359Z,519.00
2023-07-02T10:34:25.377Z,519.00
2023-07-02T10:35:25.395Z,518.00
2023-07-02T10:36:25.465Z,513.00
2023-07-02T10:37:25.557Z,513.00
2023-07-02T10:38:25.490Z,509.00
2023-07-02T10:39:25.528Z,505.00
2023-07-02T10:40:25.520Z,503.00
2023-07-02T10:41:25.556Z,503.00
2023-07-02T10:42:25.801Z,504.00
2023-07-02T10:43:27.218Z,507.00
2023-07-02T10:44:25.622Z,508.00
2023-07-02T10:45:25.611Z,509.00
2023-07-02T10:46:25.703Z,509.00
2023-07-02T10:47:25.609Z,506.00
2023-07-02T10:48:25.813Z,505.00
2023-07-02T10:49:25.600Z,509.00
2023-07-02T10:50:25.622Z,512.00
2023-07-02T10:51:25.650Z,507.00
2023-07-02T10:52:25.570Z,510.00
2023-07-02T10:53:25.594Z,503.00
2023-07-02T10:54:25.536Z,508.00
2023-07-02T10:55:25.572Z,504.00
2023-07-02T10:56:25.512Z,506.00
2023-07-02T10:57:25.541Z,504.00
2023-07-02T10:58:25.518Z,502.00
2023-07-02T10:59:25.536Z,512.00
2023-07-02T11:00:25.513Z,507.00
2023-07-02T11:01:25.507Z,508.00
2023-07-02T11:02:25.626Z,508.00
2023-07-02T11:03:25.778Z,504.00
2023-07-02T11:04:25.495Z,507.00
2023-07-02T11:05:28.543Z,504.00
2023-07-02T11:06:25.511Z,505.00
2023-07-02T11:07:25.565Z,505.00
2023-07-02T11:08:25.477Z,504.00
2023-07-02T11:09:25.499Z,507.00
2023-07-02T11:10:25.493Z,502.00
2023-07-02T11:11:25.458Z,503.00
2023-07-02T11:12:25.436Z,506.00
2023-07-02T11:13:25.393Z,507.00
2023-07-02T11:14:25.456Z,510.00
2023-07-02T11:15:25.428Z,508.00
2023-07-02T11:16:25.513Z,506.00
2023-07-02T11:17:25.503Z,508.00
2023-07-02T11:18:25.441Z,506.00
2023-07-02T11:19:25.381Z,503.00
2023-07-02T11:20:25.395Z,507.00
2023-07-02T11:21:25.390Z,508.00
2023-07-02T11:22:25.389Z,508.00
2023-07-02T11:23:25.387Z,506.00
2023-07-02T11:24:25.326Z,503.00
2023-07-02T11:25:25.340Z,502.00
2023-07-02T11:26:25.325Z,505.00
2023-07-02T11:27:25.328Z,502.00
2023-07-02T11:28:25.362Z,503.00
2023-07-02T11:29:25.343Z,505.00
2023-07-02T11:30:25.348Z,502.00
2023-07-02T11:31:25.369Z,504.00
2023-07-02T11:32:26.079Z,501.00
2023-07-02T11:33:25.335Z,503.00
2023-07-02T11:34:25.600Z,499.00
2023-07-02T11:35:25.278Z,506.00
2023-07-02T11:36:25.316Z,505.00
2023-07-02T11:37:25.289Z,510.00
2023-07-02T11:38:25.357Z,507.00
2023-07-02T11:39:25.383Z,507.00
2023-07-02T11:40:25.491Z,500.00
2023-07-02T11:41:25.451Z,500.00
2023-07-02T11:42:25.461Z,503.00
2023-07-02T11:43:25.498Z,503.00
2023-07-02T11:44:25.543Z,509.00
2023-07-02T11:45:25.545Z,506.00
2023-07-02T11:46:25.612Z,503.00
2023-07-02T11:47:25.699Z,509.00
2023-07-02T11:48:25.676Z,508.00
2023-07-02T11:49:25.703Z,511.00
2023-07-02T11:50:27.037Z,513.00
2023-07-02T11:51:25.752Z,511.00
2023-07-02T11:52:25.807Z,511.00
2023-07-02T11:53:25.844Z,511.00
2023-07-02T11:54:25.892Z,503.00
2023-07-02T11:55:25.904Z,511.00
2023-07-02T11:56:25.939Z,513.00
2023-07-02T11:57:25.939Z,509.00
2023-07-02T11:58:26.012Z,505.00
2023-07-02T11:59:26.030Z,504.00
2023-07-02T12:00:26.036Z,513.00
2023-07-02T12:01:26.137Z,507.00
2023-07-02T12:02:26.178Z,512.00
2023-07-02T12:03:26.171Z,513.00
2023-07-02T12:04:26.175Z,515.00
2023-07-02T12:05:26.231Z,509.00
2023-07-02T12:06:26.208Z,512.00
2023-07-02T12:07:26.319Z,509.00
2023-07-02T12:08:26.321Z,511.00
2023-07-02T12:09:26.403Z,520.00
2023-07-02T12:10:26.361Z,514.00
2023-07-02T12:11:26.427Z,511.00
2023-07-02T12:12:26.493Z,510.00
2023-07-02T12:13:26.483Z,509.00
2023-07-02T12:14:26.509Z,511.00
2023-07-02T12:15:26.548Z,505.00
2023-07-02T12:16:26.562Z,511.00
2023-07-02T12:17:26.649Z,505.00
2023-07-02T12:18:26.637Z,517.00
2023-07-02T12:19:26.700Z,515.00
2023-07-02T12:20:26.716Z,524.00
2023-07-02T12:21:26.736Z,512.00
2023-07-02T12:22:26.724Z,512.00
2023-07-02T12:23:26.817Z,512.00
2023-07-02T12:24:26.835Z,516.00
2023-07-02T12:25:26.863Z,513.00
2023-07-02T12:26:26.869Z,516.00
2023-07-02T12:27:26.974Z,521.00
2023-07-02T12:28:26.930Z,515.00